createdAt,value
2019-01-15T00:00:02.656Z,80.34
2019-01-15T00:03:06.557Z,81.17
2019-01-15T00:06:10.447Z,81.43
2019-01-15T00:09:14.326Z,82.10
2019-01-15T00:12:18.166Z,82.02
2019-01-15T00:15:22.224Z,82.04
2019-01-15T00:18:26.124Z,82.02
2019-01-15T00:21:30.003Z,82.21
2019-01-15T00:24:33.922Z,82.07
2019-01-15T00:27:37.793Z,82.14
2019-01-15T00:30:41.750Z,82.00
2019-01-15T00:33:45.917Z,82.42
2019-01-15T00:36:49.791Z,82.20
2019-01-15T00:39:53.685Z,82.20
2019-01-15T00:42:57.963Z,82.22
2019-01-15T00:46:02.248Z,82.06
2019-01-15T00:49:06.541Z,81.50
2019-01-15T00:52:10.521Z,81.55
2019-01-15T00:55:14.559Z,81.52
2019-01-15T00:58:18.888Z,80.90
2019-01-15T01:01:23.156Z,80.89
2019-01-15T01:04:27.122Z,80.17
2019-01-15T01:07:31.103Z,80.05
2019-01-15T01:10:35.404Z,79.95
2019-01-15T01:13:39.785Z,79.64
2019-01-15T01:16:43.732Z,79.26
2019-01-15T01:19:47.972Z,78.54
2019-01-15T01:22:52.730Z,77.95
2019-01-15T01:25:56.719Z,77.83
2019-01-15T01:29:01.718Z,77.48
2019-01-15T01:32:06.172Z,77.67
2019-01-15T01:35:10.268Z,78.12
2019-01-15T01:38:14.634Z,78.01
2019-01-15T01:41:18.628Z,77.94
2019-01-15T01:44:22.626Z,78.22
2019-01-15T01:47:26.467Z,78.25
2019-01-15T01:50:30.847Z,78.24
2019-01-15T01:53:34.849Z,77.77
2019-01-15T01:56:38.818Z,77.66
2019-01-15T01:59:42.831Z,78.12
2019-01-15T02:02:47.204Z,78.60
2019-01-15T02:05:51.256Z,78.41
2019-01-15T02:08:55.143Z,78.34
2019-01-15T02:11:58.941Z,78.38
2019-01-15T02:15:04.136Z,78.41
2019-01-15T02:18:08.504Z,78.50
2019-01-15T02:21:12.901Z,78.32
2019-01-15T02:24:17.138Z,77.39
2019-01-15T02:27:21.294Z,77.68
2019-01-15T02:30:26.947Z,77.56
2019-01-15T02:33:31.222Z,77.31
2019-01-15T02:36:35.590Z,77.27
2019-01-15T02:39:39.677Z,76.79
2019-01-15T02:42:46.858Z,76.86
2019-01-15T02:45:49.677Z,76.91
2019-01-15T02:48:53.990Z,77.00
2019-01-15T02:51:58.287Z,77.05
2019-01-15T02:55:02.283Z,76.99
2019-01-15T02:58:06.268Z,77.04
2019-01-15T03:01:10.323Z,77.41
2019-01-15T03:04:14.246Z,77.40
2019-01-15T03:07:18.056Z,77.91
2019-01-15T03:10:22.534Z,78.04
2019-01-15T03:13:26.404Z,78.13
2019-01-15T03:16:30.296Z,78.37
2019-01-15T03:19:34.185Z,78.68
2019-01-15T03:22:38.248Z,79.00
2019-01-15T03:25:42.125Z,79.02
2019-01-15T03:28:46.015Z,79.02
2019-01-15T03:31:49.913Z,79.31
2019-01-15T03:34:53.821Z,79.25
2019-01-15T03:37:57.683Z,79.40
2019-01-15T03:41:01.585Z,79.71
2019-01-15T03:44:05.844Z,79.62
2019-01-15T03:47:09.645Z,79.45
2019-01-15T03:50:13.729Z,79.54
2019-01-15T03:53:17.683Z,80.12
2019-01-15T03:56:21.559Z,80.27
2019-01-15T03:59:25.467Z,80.71
2019-01-15T04:02:29.530Z,80.73
2019-01-15T04:05:33.575Z,80.86
2019-01-15T04:08:37.551Z,81.34
2019-01-15T04:11:41.437Z,81.42
2019-01-15T04:14:45.339Z,81.68
2019-01-15T04:17:49.296Z,82.14
2019-01-15T04:20:53.413Z,82.14
2019-01-15T04:23:57.223Z,82.65
2019-01-15T04:27:01.133Z,82.67
2019-01-15T04:30:07.193Z,83.11
2019-01-15T04:33:11.147Z,84.10
2019-01-15T04:36:15.270Z,84.90
2019-01-15T04:39:19.074Z,85.58
2019-01-15T04:42:22.958Z,86.05
2019-01-15T04:45:27.033Z,86.18
2019-01-15T04:48:31.314Z,86.59
2019-01-15T04:51:35.282Z,86.92
2019-01-15T04:54:39.118Z,86.69
2019-01-15T04:57:43.125Z,87.00
2019-01-15T05:00:46.986Z,86.94
2019-01-15T05:03:50.805Z,86.99
2019-01-15T05:06:54.685Z,87.01
2019-01-15T05:09:58.752Z,86.97
2019-01-15T05:13:02.579Z,86.75
2019-01-15T05:16:06.472Z,86.53
2019-01-15T05:19:10.477Z,86.17
2019-01-15T05:22:14.458Z,86.49
2019-01-15T05:25:20.194Z,86.03
2019-01-15T05:28:23.996Z,85.94
2019-01-15T05:31:27.905Z,85.90
2019-01-15T05:34:31.899Z,86.09
2019-01-15T05:37:35.970Z,86.24
2019-01-15T05:40:39.895Z,85.73
2019-01-15T05:43:43.727Z,85.50
2019-01-15T05:46:47.740Z,86.13
2019-01-15T05:49:51.544Z,86.06
2019-01-15T05:52:55.475Z,86.24
2019-01-15T05:55:59.293Z,86.47
2019-01-15T05:59:03.273Z,86.34
2019-01-15T06:02:07.217Z,85.98
2019-01-15T06:05:11.538Z,86.01
2019-01-15T06:08:15.441Z,85.83
2019-01-15T06:11:19.441Z,85.87
2019-01-15T06:14:23.331Z,85.96
2019-01-15T06:17:27.168Z,85.82
2019-01-15T06:20:31.437Z,85.90
2019-01-15T06:23:35.354Z,86.05
2019-01-15T06:26:39.333Z,86.13
2019-01-15T06:29:43.325Z,86.11
2019-01-15T06:32:47.127Z,86.35
2019-01-15T06:35:51.127Z,86.68
2019-01-15T06:38:55.104Z,86.51
2019-01-15T06:41:59.203Z,86.54
2019-01-15T06:45:03.586Z,86.79
2019-01-15T06:48:07.659Z,86.60
2019-01-15T06:51:11.674Z,86.68
2019-01-15T06:54:16.042Z,86.68
2019-01-15T06:57:19.944Z,87.11
2019-01-15T07:00:26.214Z,86.83
2019-01-15T07:03:30.100Z,86.73
2019-01-15T07:06:34.516Z,86.53
2019-01-15T07:09:38.405Z,86.22
2019-01-15T07:12:42.960Z,86.24
2019-01-15T07:15:46.859Z,86.41
2019-01-15T07:18:50.741Z,86.20
2019-01-15T07:21:55.171Z,86.44
2019-01-15T07:24:59.058Z,86.48
2019-01-15T07:28:03.057Z,86.55
2019-01-15T07:31:07.029Z,86.78
2019-01-15T07:34:10.892Z,86.95
2019-01-15T07:37:14.826Z,87.15
2019-01-15T07:40:19.281Z,86.90
2019-01-15T07:43:23.171Z,87.07
2019-01-15T07:46:27.180Z,87.09
2019-01-15T07:49:30.977Z,86.99
2019-01-15T07:52:35.166Z,86.75
2019-01-15T07:55:39.166Z,86.87
2019-01-15T07:58:43.524Z,86.79
2019-01-15T08:01:47.943Z,87.41
2019-01-15T08:04:52.256Z,86.86
2019-01-15T08:07:56.671Z,87.14
2019-01-15T08:11:00.657Z,86.92
2019-01-15T08:14:11.873Z,86.71
2019-01-15T08:17:11.302Z,86.57
2019-01-15T08:20:15.571Z,86.67
2019-01-15T08:23:19.404Z,87.03
2019-01-15T08:26:23.378Z,87.03
2019-01-15T08:29:27.192Z,87.15
2019-01-15T08:32:31.027Z,87.49
2019-01-15T08:35:34.976Z,87.30
2019-01-15T08:38:38.806Z,87.38
2019-01-15T08:41:42.797Z,87.14
2019-01-15T08:44:46.746Z,86.92
2019-01-15T08:47:52.261Z,87.10
2019-01-15T08:50:56.440Z,86.94
2019-01-15T08:54:00.518Z,87.00
2019-01-15T08:57:06.267Z,86.76
2019-01-15T09:00:11.926Z,86.62
2019-01-15T09:03:15.811Z,86.82
2019-01-15T09:06:19.769Z,86.86
2019-01-15T09:09:23.723Z,87.12
2019-01-15T09:12:27.695Z,87.01
2019-01-15T09:15:31.786Z,87.23
2019-01-15T09:18:35.667Z,87.34
2019-01-15T09:21:39.551Z,87.74
2019-01-15T09:24:43.432Z,87.93
2019-01-15T09:27:47.487Z,88.28
2019-01-15T09:30:51.440Z,88.53
2019-01-15T09:33:55.335Z,89.18
2019-01-15T09:36:59.207Z,89.55
2019-01-15T09:40:03.182Z,90.08
2019-01-15T09:43:07.120Z,90.29
2019-01-15T09:46:11.093Z,90.40
2019-01-15T09:49:15.036Z,90.75
2019-01-15T09:52:20.514Z,90.49
2019-01-15T09:55:24.660Z,90.80
2019-01-15T09:58:28.624Z,91.13
2019-01-15T10:01:32.580Z,91.08
2019-01-15T10:04:36.367Z,91.31
2019-01-15T10:07:40.329Z,91.48
2019-01-15T10:10:44.297Z,91.55
2019-01-15T10:13:48.192Z,91.37
2019-01-15T10:16:52.090Z,91.50
2019-01-15T10:19:55.975Z,91.62
2019-01-15T10:22:59.850Z,91.99
2019-01-15T10:26:03.788Z,92.44
2019-01-15T10:29:07.694Z,92.43
2019-01-15T10:32:55.705Z,92.36
2019-01-15T10:35:59.210Z,92.45
2019-01-15T10:39:04.544Z,92.50
2019-01-15T10:42:08.482Z,92.91
2019-01-15T10:45:12.673Z,92.69
2019-01-15T10:48:16.487Z,92.60
2019-01-15T10:51:20.309Z,92.40
2019-01-15T10:54:24.190Z,92.67
2019-01-15T10:57:28.076Z,92.47
2019-01-15T11:00:32.548Z,92.33
2019-01-15T11:03:36.419Z,92.44
2019-01-15T11:06:40.379Z,92.44
2019-01-15T11:09:44.358Z,92.53
2019-01-15T11:12:48.221Z,92.33
2019-01-15T11:15:52.193Z,92.37
2019-01-15T11:18:56.235Z,92.33
2019-01-15T11:22:00.135Z,92.56
2019-01-15T11:25:05.542Z,92.52
2019-01-15T11:28:09.614Z,92.73
2019-01-15T11:31:13.585Z,92.67
2019-01-15T11:34:17.547Z,92.48
2019-01-15T11:37:21.961Z,93.05
2019-01-15T11:40:26.038Z,93.01
2019-01-15T11:43:29.926Z,92.92
2019-01-15T11:46:34.200Z,92.99
2019-01-15T11:49:38.032Z,92.85
2019-01-15T11:52:41.919Z,92.81
2019-01-15T11:55:45.729Z,92.88
2019-01-15T11:58:51.003Z,92.68
2019-01-15T12:02:04.838Z,92.67
2019-01-15T12:05:27.293Z,92.71
2019-01-15T12:08:59.763Z,92.90
2019-01-15T12:12:21.490Z,92.84
2019-01-15T12:15:39.782Z,93.03
2019-01-15T12:19:08.936Z,92.81
2019-01-15T12:22:28.379Z,92.66
2019-01-15T12:25:42.543Z,92.75
2019-01-15T12:29:08.960Z,92.84
2019-01-15T12:32:39.409Z,92.87
2019-01-15T12:35:55.786Z,92.75
2019-01-15T12:39:17.486Z,92.98
2019-01-15T12:42:49.575Z,92.76
2019-01-15T12:46:11.366Z,92.90
2019-01-15T12:49:34.201Z,92.79
2019-01-15T12:52:56.391Z,92.77
2019-01-15T12:56:34.233Z,92.71
2019-01-15T13:00:12.320Z,92.82
2019-01-15T13:03:44.421Z,92.86
2019-01-15T13:07:13.651Z,92.96
2019-01-15T13:10:36.724Z,92.77
2019-01-15T13:14:03.098Z,92.85
2019-01-15T13:17:38.336Z,92.70
2019-01-15T13:21:07.320Z,92.83
2019-01-15T13:24:29.102Z,92.80
2019-01-15T13:27:58.605Z,92.70
2019-01-15T13:31:20.477Z,92.92
2019-01-15T13:34:42.539Z,92.98
2019-01-15T13:38:14.798Z,92.99
2019-01-15T13:41:43.917Z,92.93
2019-01-15T13:45:03.293Z,92.83
2019-01-15T13:48:29.650Z,93.07
2019-01-15T13:51:58.665Z,93.21
2019-01-15T13:55:28.124Z,93.09
2019-01-15T13:58:50.673Z,92.95
2019-01-15T14:02:16.615Z,92.74
2019-01-15T14:05:44.113Z,93.13
2019-01-15T14:09:16.173Z,93.21
2019-01-15T14:12:33.284Z,93.08
2019-01-15T14:16:00.121Z,93.24
2019-01-15T14:19:22.497Z,93.20
2019-01-15T14:22:43.268Z,93.32
2019-01-15T14:26:04.990Z,93.20
2019-01-15T14:29:26.570Z,93.30
2019-01-15T14:32:52.158Z,93.39
2019-01-15T14:36:25.444Z,93.29
2019-01-15T14:39:47.367Z,93.33
2019-01-15T14:43:09.139Z,93.22
2019-01-15T14:46:29.196Z,93.34
2019-01-15T14:49:50.901Z,93.30
2019-01-15T14:53:16.662Z,93.19
2019-01-15T14:56:51.723Z,92.77
2019-01-15T15:00:30.209Z,92.40
2019-01-15T15:03:51.741Z,92.02
2019-01-15T15:07:23.888Z,91.93
2019-01-15T15:10:55.641Z,91.71
2019-01-15T15:14:25.200Z,91.37
2019-01-15T15:17:57.027Z,91.64
2019-01-15T15:21:20.927Z,91.47
2019-01-15T15:24:54.290Z,91.16
2019-01-15T15:28:26.603Z,90.94
2019-01-15T15:31:42.103Z,90.97
2019-01-15T15:35:02.372Z,90.75
2019-01-15T15:38:24.262Z,90.53
2019-01-15T15:41:56.513Z,90.54
2019-01-15T15:45:31.502Z,90.55
2019-01-15T15:48:54.327Z,90.52
2019-01-15T15:52:09.768Z,90.41
2019-01-15T15:55:25.026Z,90.32
2019-01-15T15:58:47.274Z,90.65
2019-01-15T16:02:03.774Z,90.41
2019-01-15T16:05:26.889Z,90.32
2019-01-15T16:09:08.404Z,90.28
2019-01-15T16:12:26.466Z,90.12
2019-01-15T16:15:52.505Z,90.08
2019-01-15T16:19:14.001Z,90.13
2019-01-15T16:22:54.966Z,90.08
2019-01-15T16:26:27.007Z,89.95
2019-01-15T16:29:50.955Z,90.24
2019-01-15T16:33:23.158Z,90.31
2019-01-15T16:36:49.417Z,89.96
2019-01-15T16:40:15.710Z,89.86
2019-01-15T16:43:38.810Z,89.90
2019-01-15T16:46:55.689Z,89.40
2019-01-15T16:50:11.804Z,89.57
2019-01-15T16:53:34.004Z,89.57
2019-01-15T16:56:52.772Z,89.54
2019-01-15T17:00:25.343Z,88.73
2019-01-15T17:03:47.184Z,88.95
2019-01-15T17:07:12.975Z,89.13
2019-01-15T17:10:34.860Z,89.04
2019-01-15T17:14:10.004Z,89.09
2019-01-15T17:17:20.874Z,89.10
2019-01-15T17:20:46.872Z,89.25
2019-01-15T17:24:01.138Z,89.27
2019-01-15T17:27:36.425Z,89.54
2019-01-15T17:30:56.297Z,89.55
2019-01-15T17:34:21.900Z,89.50
2019-01-15T17:37:43.613Z,89.71
2019-01-15T17:41:03.389Z,89.62
2019-01-15T17:44:26.325Z,89.88
2019-01-15T17:47:58.208Z,90.33
2019-01-15T17:51:21.060Z,90.36
2019-01-15T17:55:02.088Z,90.45
2019-01-15T17:58:24.240Z,90.85
2019-01-15T18:01:50.528Z,90.97
2019-01-15T18:05:12.374Z,90.80
2019-01-15T18:08:34.284Z,91.28
2019-01-15T18:11:56.337Z,91.23
2019-01-15T18:15:28.523Z,91.48
2019-01-15T18:18:57.261Z,91.42
2019-01-15T18:22:16.570Z,91.23
2019-01-15T18:25:40.540Z,91.10
2019-01-15T18:29:02.422Z,91.60
2019-01-15T18:32:25.442Z,91.80
2019-01-15T18:35:54.228Z,91.85
2019-01-15T18:39:14.087Z,91.68
2019-01-15T18:42:34.827Z,91.90
2019-01-15T18:45:55.505Z,91.62
2019-01-15T18:49:17.967Z,91.86
2019-01-15T18:52:39.790Z,92.07
2019-01-15T18:56:00.330Z,91.55
2019-01-15T18:59:22.858Z,92.02
2019-01-15T19:02:48.647Z,91.73
2019-01-15T19:06:12.059Z,91.73
2019-01-15T19:09:40.777Z,91.79
2019-01-15T19:13:03.677Z,91.95
2019-01-15T19:16:30.297Z,91.91
2019-01-15T19:19:51.973Z,91.95
2019-01-15T19:23:13.560Z,91.67
2019-01-15T19:26:51.883Z,92.09
2019-01-15T19:30:20.689Z,92.01
2019-01-15T19:33:44.675Z,92.02
2019-01-15T19:37:16.957Z,91.72
2019-01-15T19:40:58.065Z,91.80
2019-01-15T19:44:23.832Z,91.71
2019-01-15T19:47:49.839Z,91.87
2019-01-15T19:51:03.101Z,91.59
2019-01-15T19:54:35.109Z,91.60
2019-01-15T19:57:58.039Z,92.01
2019-01-15T20:01:19.379Z,92.25
2019-01-15T20:04:45.619Z,92.38
2019-01-15T20:07:58.220Z,92.37
2019-01-15T20:11:19.869Z,92.49
2019-01-15T20:14:36.993Z,92.51
2019-01-15T20:17:53.667Z,92.62
2019-01-15T20:21:11.621Z,93.00
2019-01-15T20:24:40.627Z,93.02
2019-01-15T20:28:12.744Z,92.84
2019-01-15T20:31:41.859Z,93.20
2019-01-15T20:35:03.662Z,93.16
2019-01-15T20:38:32.606Z,93.21
2019-01-15T20:41:54.419Z,93.30
2019-01-15T20:45:16.042Z,93.16
2019-01-15T20:48:44.918Z,93.42
2019-01-15T20:52:13.691Z,93.58
2019-01-15T20:55:32.207Z,93.75
2019-01-15T20:58:58.226Z,93.67
2019-01-15T21:02:33.394Z,93.90
2019-01-15T21:05:46.961Z,93.95
2019-01-15T21:09:09.250Z,93.99
2019-01-15T21:12:29.768Z,93.84
2019-01-15T21:15:52.643Z,93.88
2019-01-15T21:19:21.432Z,93.70
2019-01-15T21:22:35.967Z,93.37
2019-01-15T21:26:08.167Z,93.11
2019-01-15T21:29:26.818Z,93.20
2019-01-15T21:32:48.546Z,93.35
2019-01-15T21:36:10.355Z,92.98
2019-01-15T21:39:42.496Z,92.47
2019-01-15T21:43:17.608Z,92.58
2019-01-15T21:46:39.188Z,92.23
2019-01-15T21:50:00.944Z,92.12
2019-01-15T21:53:29.831Z,91.81
2019-01-15T21:57:11.141Z,91.64
2019-01-15T22:00:24.951Z,91.44
2019-01-15T22:03:47.938Z,91.28
2019-01-15T22:07:11.459Z,91.18
2019-01-15T22:10:33.011Z,91.06
2019-01-15T22:13:56.426Z,90.87
2019-01-15T22:17:18.213Z,90.75
2019-01-15T22:20:40.071Z,90.59
2019-01-15T22:24:08.918Z,90.40
2019-01-15T22:27:31.882Z,90.30
2019-01-15T22:30:53.987Z,90.18
2019-01-15T22:34:17.273Z,90.03
2019-01-15T22:37:28.996Z,89.95
2019-01-15T22:40:37.995Z,90.00
2019-01-15T22:43:50.412Z,90.00
2019-01-15T22:47:16.974Z,89.91
2019-01-15T22:50:53.847Z,90.05
2019-01-15T22:54:18.915Z,89.56
2019-01-15T22:57:44.693Z,89.44
2019-01-15T23:01:06.783Z,89.44
2019-01-15T23:04:29.904Z,89.36
2019-01-15T23:07:56.605Z,90.09
2019-01-15T23:11:31.965Z,89.36
2019-01-15T23:14:54.916Z,89.61
2019-01-15T23:18:23.731Z,89.06
2019-01-15T23:21:38.675Z,89.55
2019-01-15T23:24:51.196Z,89.47
2019-01-15T23:28:20.140Z,89.43
2019-01-15T23:31:41.912Z,89.42
2019-01-15T23:35:11.122Z,89.35
2019-01-15T23:38:49.460Z,89.43
2019-01-15T23:42:11.109Z,89.40
2019-01-15T23:45:32.907Z,89.46
2019-01-15T23:49:01.926Z,89.53
2019-01-15T23:52:33.550Z,89.37
2019-01-15T23:56:08.795Z,89.66
2019-01-15T23:59:27.779Z,89.78
